sensor_id;sensor_type;location;lat;lon;timestamp;temperature;humidity
4520;DHT22;2272;49.226;8.108;2022-08-05T00:01:00;27.20;73.60
4520;DHT22;2272;49.226;8.108;2022-08-05T00:03:27;27.10;74.60
4520;DHT22;2272;49.226;8.108;2022-08-05T00:05:55;26.90;75.40
4520;DHT22;2272;49.226;8.108;2022-08-05T00:08:22;26.80;75.80
4520;DHT22;2272;49.226;8.108;2022-08-05T00:10:48;26.80;76.00
4520;DHT22;2272;49.226;8.108;2022-08-05T00:13:15;26.70;76.10
4520;DHT22;2272;49.226;8.108;2022-08-05T00:15:42;26.70;76.20
4520;DHT22;2272;49.226;8.108;2022-08-05T00:18:08;26.70;76.10
4520;DHT22;2272;49.226;8.108;2022-08-05T00:20:35;26.70;76.20
4520;DHT22;2272;49.226;8.108;2022-08-05T00:23:03;26.70;76.10
4520;DHT22;2272;49.226;8.108;2022-08-05T00:25:30;26.70;76.30
4520;DHT22;2272;49.226;8.108;2022-08-05T00:27:56;26.70;76.50
4520;DHT22;2272;49.226;8.108;2022-08-05T00:30:24;26.70;77.10
4520;DHT22;2272;49.226;8.108;2022-08-05T00:32:50;26.60;77.40
4520;DHT22;2272;49.226;8.108;2022-08-05T00:35:17;26.60;77.90
4520;DHT22;2272;49.226;8.108;2022-08-05T00:37:44;26.50;78.40
4520;DHT22;2272;49.226;8.108;2022-08-05T00:40:12;26.40;78.60
4520;DHT22;2272;49.226;8.108;2022-08-05T00:42:45;26.40;78.50
4520;DHT22;2272;49.226;8.108;2022-08-05T00:45:28;26.40;77.90
4520;DHT22;2272;49.226;8.108;2022-08-05T00:47:55;26.40;77.50
4520;DHT22;2272;49.226;8.108;2022-08-05T00:50:22;26.40;77.50
4520;DHT22;2272;49.226;8.108;2022-08-05T00:52:49;26.40;77.50
4520;DHT22;2272;49.226;8.108;2022-08-05T00:55:17;26.40;77.20
4520;DHT22;2272;49.226;8.108;2022-08-05T00:57:44;26.40;77.80
4520;DHT22;2272;49.226;8.108;2022-08-05T01:00:11;26.30;78.80
4520;DHT22;2272;49.226;8.108;2022-08-05T01:02:38;26.20;79.30
4520;DHT22;2272;49.226;8.108;2022-08-05T01:05:05;26.10;79.90
4520;DHT22;2272;49.226;8.108;2022-08-05T01:07:32;26.00;80.30
4520;DHT22;2272;49.226;8.108;2022-08-05T01:09:59;25.90;80.50
4520;DHT22;2272;49.226;8.108;2022-08-05T01:12:28;25.90;80.50
4520;DHT22;2272;49.226;8.108;2022-08-05T01:15:00;25.80;81.20
4520;DHT22;2272;49.226;8.108;2022-08-05T01:17:31;25.80;80.80
4520;DHT22;2272;49.226;8.108;2022-08-05T01:20:18;25.80;80.40
4520;DHT22;2272;49.226;8.108;2022-08-05T01:23:05;25.80;80.20
4520;DHT22;2272;49.226;8.108;2022-08-05T01:26:02;25.80;80.20
4520;DHT22;2272;49.226;8.108;2022-08-05T01:28:36;25.80;79.70
4520;DHT22;2272;49.226;8.108;2022-08-05T01:31:07;25.80;79.60
4520;DHT22;2272;49.226;8.108;2022-08-05T01:33:38;25.80;80.00
4520;DHT22;2272;49.226;8.108;2022-08-05T01:36:09;25.80;80.50
4520;DHT22;2272;49.226;8.108;2022-08-05T01:38:37;25.70;80.80
4520;DHT22;2272;49.226;8.108;2022-08-05T01:41:05;25.70;81.00
4520;DHT22;2272;49.226;8.108;2022-08-05T01:43:34;25.60;81.40
4520;DHT22;2272;49.226;8.108;2022-08-05T01:46:03;25.50;81.50
4520;DHT22;2272;49.226;8.108;2022-08-05T01:48:30;25.50;81.70
4520;DHT22;2272;49.226;8.108;2022-08-05T01:51:02;25.50;82.00
4520;DHT22;2272;49.226;8.108;2022-08-05T01:53:30;25.40;81.90
4520;DHT22;2272;49.226;8.108;2022-08-05T01:56:00;25.40;82.20
4520;DHT22;2272;49.226;8.108;2022-08-05T01:58:28;25.40;82.20
4520;DHT22;2272;49.226;8.108;2022-08-05T02:00:58;25.40;82.40
4520;DHT22;2272;49.226;8.108;2022-08-05T02:03:28;25.40;82.30
4520;DHT22;2272;49.226;8.108;2022-08-05T02:05:57;25.40;83.00
4520;DHT22;2272;49.226;8.108;2022-08-05T02:08:24;25.40;82.30
4520;DHT22;2272;49.226;8.108;2022-08-05T02:10:52;25.30;82.50
4520;DHT22;2272;49.226;8.108;2022-08-05T02:13:26;25.20;82.80
4520;DHT22;2272;49.226;8.108;2022-08-05T02:16:01;25.20;83.00
4520;DHT22;2272;49.226;8.108;2022-08-05T02:18:32;25.10;83.30
4520;DHT22;2272;49.226;8.108;2022-08-05T02:21:05;25.10;83.70
4520;DHT22;2272;49.226;8.108;2022-08-05T02:23:36;25.10;84.00
4520;DHT22;2272;49.226;8.108;2022-08-05T02:26:06;25.00;84.30
4520;DHT22;2272;49.226;8.108;2022-08-05T02:28:36;25.00;84.70
4520;DHT22;2272;49.226;8.108;2022-08-05T02:31:07;25.00;85.10
4520;DHT22;2272;49.226;8.108;2022-08-05T02:33:38;24.90;84.90
4520;DHT22;2272;49.226;8.108;2022-08-05T02:36:10;24.90;85.00
4520;DHT22;2272;49.226;8.108;2022-08-05T02:38:39;24.90;85.30
4520;DHT22;2272;49.226;8.108;2022-08-05T02:41:08;24.90;85.50
4520;DHT22;2272;49.226;8.108;2022-08-05T02:43:37;24.90;85.40
4520;DHT22;2272;49.226;8.108;2022-08-05T02:46:06;24.90;85.40
4520;DHT22;2272;49.226;8.108;2022-08-05T02:48:33;24.90;85.40
4520;DHT22;2272;49.226;8.108;2022-08-05T02:51:01;24.90;85.50
4520;DHT22;2272;49.226;8.108;2022-08-05T02:53:29;24.90;85.90
4520;DHT22;2272;49.226;8.108;2022-08-05T02:55:58;24.90;86.10
4520;DHT22;2272;49.226;8.108;2022-08-05T02:58:26;24.80;86.20
4520;DHT22;2272;49.226;8.108;2022-08-05T03:00:54;24.70;87.10
4520;DHT22;2272;49.226;8.108;2022-08-05T03:03:23;24.60;87.60
4520;DHT22;2272;49.226;8.108;2022-08-05T03:05:51;24.50;88.10
4520;DHT22;2272;49.226;8.108;2022-08-05T03:08:18;24.30;90.00
4520;DHT22;2272;49.226;8.108;2022-08-05T03:10:45;24.10;90.30
4520;DHT22;2272;49.226;8.108;2022-08-05T03:13:12;23.90;90.90
4520;DHT22;2272;49.226;8.108;2022-08-05T03:15:41;23.80;91.20
4520;DHT22;2272;49.226;8.108;2022-08-05T03:18:08;23.70;91.20
4520;DHT22;2272;49.226;8.108;2022-08-05T03:20:36;23.70;91.40
4520;DHT22;2272;49.226;8.108;2022-08-05T03:23:04;23.70;91.30
4520;DHT22;2272;49.226;8.108;2022-08-05T03:25:33;23.80;91.30
4520;DHT22;2272;49.226;8.108;2022-08-05T03:28:01;23.80;91.20
4520;DHT22;2272;49.226;8.108;2022-08-05T03:30:30;23.80;91.20
4520;DHT22;2272;49.226;8.108;2022-08-05T03:32:58;23.80;91.40
4520;DHT22;2272;49.226;8.108;2022-08-05T03:35:26;23.80;91.50
4520;DHT22;2272;49.226;8.108;2022-08-05T03:37:55;23.80;91.60
4520;DHT22;2272;49.226;8.108;2022-08-05T03:40:22;23.80;91.80
4520;DHT22;2272;49.226;8.108;2022-08-05T03:42:49;23.70;91.90
4520;DHT22;2272;49.226;8.108;2022-08-05T03:45:16;23.70;90.90
4520;DHT22;2272;49.226;8.108;2022-08-05T03:47:42;23.80;90.60
4520;DHT22;2272;49.226;8.108;2022-08-05T03:50:09;23.90;90.60
4520;DHT22;2272;49.226;8.108;2022-08-05T03:52:47;23.80;90.40
4520;DHT22;2272;49.226;8.108;2022-08-05T03:55:23;23.80;90.60
4520;DHT22;2272;49.226;8.108;2022-08-05T03:57:51;23.70;90.70
4520;DHT22;2272;49.226;8.108;2022-08-05T04:00:19;23.70;90.50
4520;DHT22;2272;49.226;8.108;2022-08-05T04:02:51;23.70;90.60
4520;DHT22;2272;49.226;8.108;2022-08-05T04:05:20;23.60;90.80
4520;DHT22;2272;49.226;8.108;2022-08-05T04:07:47;23.50;90.80
4520;DHT22;2272;49.226;8.108;2022-08-05T04:10:15;23.50;90.30
4520;DHT22;2272;49.226;8.108;2022-08-05T04:12:44;23.50;90.30
4520;DHT22;2272;49.226;8.108;2022-08-05T04:15:11;23.50;90.60
4520;DHT22;2272;49.226;8.108;2022-08-05T04:17:38;23.50;90.40
4520;DHT22;2272;49.226;8.108;2022-08-05T04:20:05;23.40;90.50
4520;DHT22;2272;49.226;8.108;2022-08-05T04:22:32;23.40;90.60
4520;DHT22;2272;49.226;8.108;2022-08-05T04:24:59;23.30;90.40
4520;DHT22;2272;49.226;8.108;2022-08-05T04:27:26;23.40;90.50
4520;DHT22;2272;49.226;8.108;2022-08-05T04:29:54;23.30;90.30
4520;DHT22;2272;49.226;8.108;2022-08-05T04:32:21;23.30;90.40
4520;DHT22;2272;49.226;8.108;2022-08-05T04:34:47;23.30;90.30
4520;DHT22;2272;49.226;8.108;2022-08-05T04:37:14;23.30;90.60
4520;DHT22;2272;49.226;8.108;2022-08-05T04:39:41;23.30;90.90
4520;DHT22;2272;49.226;8.108;2022-08-05T04:42:08;23.30;90.00
4520;DHT22;2272;49.226;8.108;2022-08-05T04:44:34;23.50;89.00
4520;DHT22;2272;49.226;8.108;2022-08-05T04:47:03;23.60;89.40
4520;DHT22;2272;49.226;8.108;2022-08-05T04:49:30;23.60;89.40
4520;DHT22;2272;49.226;8.108;2022-08-05T04:51:56;23.60;90.00
4520;DHT22;2272;49.226;8.108;2022-08-05T04:54:23;23.60;89.20
4520;DHT22;2272;49.226;8.108;2022-08-05T04:56:51;23.60;89.30
4520;DHT22;2272;49.226;8.108;2022-08-05T04:59:18;23.60;89.40
4520;DHT22;2272;49.226;8.108;2022-08-05T05:01:46;23.70;89.00
4520;DHT22;2272;49.226;8.108;2022-08-05T05:04:14;23.70;88.90
4520;DHT22;2272;49.226;8.108;2022-08-05T05:06:41;23.70;88.80
4520;DHT22;2272;49.226;8.108;2022-08-05T05:09:09;23.80;88.50
4520;DHT22;2272;49.226;8.108;2022-08-05T05:11:36;24.00;88.50
4520;DHT22;2272;49.226;8.108;2022-08-05T05:14:02;24.10;88.40
4520;DHT22;2272;49.226;8.108;2022-08-05T05:16:29;24.30;88.40
4520;DHT22;2272;49.226;8.108;2022-08-05T05:18:56;24.70;88.80
4520;DHT22;2272;49.226;8.108;2022-08-05T05:21:24;24.80;87.80
4520;DHT22;2272;49.226;8.108;2022-08-05T05:23:51;25.00;87.50
4520;DHT22;2272;49.226;8.108;2022-08-05T05:26:17;25.00;86.80
4520;DHT22;2272;49.226;8.108;2022-08-05T05:28:44;25.00;86.90
4520;DHT22;2272;49.226;8.108;2022-08-05T05:31:11;24.80;86.10
4520;DHT22;2272;49.226;8.108;2022-08-05T05:33:38;24.70;86.70
4520;DHT22;2272;49.226;8.108;2022-08-05T05:36:05;24.70;86.90
4520;DHT22;2272;49.226;8.108;2022-08-05T05:38:33;24.70;87.10
4520;DHT22;2272;49.226;8.108;2022-08-05T05:41:00;24.70;87.50
4520;DHT22;2272;49.226;8.108;2022-08-05T05:43:26;24.70;88.40
4520;DHT22;2272;49.226;8.108;2022-08-05T05:45:53;24.60;88.50
4520;DHT22;2272;49.226;8.108;2022-08-05T05:48:20;24.50;88.90
4520;DHT22;2272;49.226;8.108;2022-08-05T05:50:46;24.40;88.70
4520;DHT22;2272;49.226;8.108;2022-08-05T05:53:13;24.40;88.10
4520;DHT22;2272;49.226;8.108;2022-08-05T05:55:41;24.40;87.50
4520;DHT22;2272;49.226;8.108;2022-08-05T05:58:08;24.50;86.70
4520;DHT22;2272;49.226;8.108;2022-08-05T06:00:35;24.70;85.80
4520;DHT22;2272;49.226;8.108;2022-08-05T06:03:03;25.10;84.60
4520;DHT22;2272;49.226;8.108;2022-08-05T06:05:30;25.60;83.60
4520;DHT22;2272;49.226;8.108;2022-08-05T06:07:57;26.00;81.90
4520;DHT22;2272;49.226;8.108;2022-08-05T06:10:23;26.40;81.20
4520;DHT22;2272;49.226;8.108;2022-08-05T06:12:51;26.70;80.30
4520;DHT22;2272;49.226;8.108;2022-08-05T06:15:18;27.00;79.80
4520;DHT22;2272;49.226;8.108;2022-08-05T06:17:45;27.20;78.10
4520;DHT22;2272;49.226;8.108;2022-08-05T06:20:11;27.60;77.70
4520;DHT22;2272;49.226;8.108;2022-08-05T06:22:38;28.00;77.30
4520;DHT22;2272;49.226;8.108;2022-08-05T06:25:05;28.30;75.70
4520;DHT22;2272;49.226;8.108;2022-08-05T06:27:33;28.50;74.80
4520;DHT22;2272;49.226;8.108;2022-08-05T06:30:01;28.60;74.70
4520;DHT22;2272;49.226;8.108;2022-08-05T06:32:28;28.90;74.60
4520;DHT22;2272;49.226;8.108;2022-08-05T06:34:56;28.90;74.00
4520;DHT22;2272;49.226;8.108;2022-08-05T06:37:24;28.80;74.20
4520;DHT22;2272;49.226;8.108;2022-08-05T06:39:51;28.70;74.30
4520;DHT22;2272;49.226;8.108;2022-08-05T06:42:18;28.70;74.40
4520;DHT22;2272;49.226;8.108;2022-08-05T06:44:45;28.90;74.60
4520;DHT22;2272;49.226;8.108;2022-08-05T06:47:13;29.10;74.30
4520;DHT22;2272;49.226;8.108;2022-08-05T06:49:39;29.10;73.00
4520;DHT22;2272;49.226;8.108;2022-08-05T06:52:06;29.00;73.60
4520;DHT22;2272;49.226;8.108;2022-08-05T06:54:33;28.80;74.50
4520;DHT22;2272;49.226;8.108;2022-08-05T06:56:59;28.50;75.90
4520;DHT22;2272;49.226;8.108;2022-08-05T06:59:26;28.20;78.30
4520;DHT22;2272;49.226;8.108;2022-08-05T07:01:53;27.90;77.80
4520;DHT22;2272;49.226;8.108;2022-08-05T07:04:21;27.70;78.50
4520;DHT22;2272;49.226;8.108;2022-08-05T07:06:48;27.50;78.20
4520;DHT22;2272;49.226;8.108;2022-08-05T07:09:14;27.40;79.10
4520;DHT22;2272;49.226;8.108;2022-08-05T07:11:41;27.20;80.00
4520;DHT22;2272;49.226;8.108;2022-08-05T07:14:08;27.00;80.40
4520;DHT22;2272;49.226;8.108;2022-08-05T07:16:52;26.80;80.80
4520;DHT22;2272;49.226;8.108;2022-08-05T07:19:26;26.70;81.90
4520;DHT22;2272;49.226;8.108;2022-08-05T07:21:54;26.80;82.20
4520;DHT22;2272;49.226;8.108;2022-08-05T07:24:21;26.80;82.00
4520;DHT22;2272;49.226;8.108;2022-08-05T07:26:48;26.70;82.00
4520;DHT22;2272;49.226;8.108;2022-08-05T07:29:15;26.70;82.20
4520;DHT22;2272;49.226;8.108;2022-08-05T07:31:41;26.60;82.60
4520;DHT22;2272;49.226;8.108;2022-08-05T07:34:08;26.60;82.50
4520;DHT22;2272;49.226;8.108;2022-08-05T07:36:36;26.50;82.70
4520;DHT22;2272;49.226;8.108;2022-08-05T07:39:04;26.40;83.50
4520;DHT22;2272;49.226;8.108;2022-08-05T07:41:31;26.20;84.30
4520;DHT22;2272;49.226;8.108;2022-08-05T07:43:59;26.00;84.80
4520;DHT22;2272;49.226;8.108;2022-08-05T07:46:27;25.90;85.00
4520;DHT22;2272;49.226;8.108;2022-08-05T07:48:55;25.90;85.40
4520;DHT22;2272;49.226;8.108;2022-08-05T07:51:22;26.00;85.50
4520;DHT22;2272;49.226;8.108;2022-08-05T07:53:50;26.00;85.40
4520;DHT22;2272;49.226;8.108;2022-08-05T07:56:17;25.80;85.30
4520;DHT22;2272;49.226;8.108;2022-08-05T07:58:43;25.70;85.70
4520;DHT22;2272;49.226;8.108;2022-08-05T08:01:10;25.40;86.20
4520;DHT22;2272;49.226;8.108;2022-08-05T08:03:37;25.20;86.70
4520;DHT22;2272;49.226;8.108;2022-08-05T08:06:04;25.10;87.30
4520;DHT22;2272;49.226;8.108;2022-08-05T08:08:31;24.90;87.50
4520;DHT22;2272;49.226;8.108;2022-08-05T08:10:59;24.80;87.90
4520;DHT22;2272;49.226;8.108;2022-08-05T08:13:25;24.70;88.40
4520;DHT22;2272;49.226;8.108;2022-08-05T08:15:52;24.50;88.90
4520;DHT22;2272;49.226;8.108;2022-08-05T08:18:19;24.40;89.60
4520;DHT22;2272;49.226;8.108;2022-08-05T08:20:45;23.90;91.10
4520;DHT22;2272;49.226;8.108;2022-08-05T08:23:13;23.40;92.10
4520;DHT22;2272;49.226;8.108;2022-08-05T08:25:42;23.10;93.10
4520;DHT22;2272;49.226;8.108;2022-08-05T08:28:10;23.00;93.10
4520;DHT22;2272;49.226;8.108;2022-08-05T08:30:37;23.10;92.50
4520;DHT22;2272;49.226;8.108;2022-08-05T08:33:06;23.50;92.50
4520;DHT22;2272;49.226;8.108;2022-08-05T08:35:33;24.10;91.80
4520;DHT22;2272;49.226;8.108;2022-08-05T08:38:00;24.80;92.10
4520;DHT22;2272;49.226;8.108;2022-08-05T08:40:27;25.40;91.10
4520;DHT22;2272;49.226;8.108;2022-08-05T08:42:54;26.00;90.50
4520;DHT22;2272;49.226;8.108;2022-08-05T08:45:22;26.80;89.30
4520;DHT22;2272;49.226;8.108;2022-08-05T08:47:50;27.30;86.10
4520;DHT22;2272;49.226;8.108;2022-08-05T08:50:19;27.40;84.70
4520;DHT22;2272;49.226;8.108;2022-08-05T08:52:49;27.50;83.20
4520;DHT22;2272;49.226;8.108;2022-08-05T08:55:16;27.50;82.70
4520;DHT22;2272;49.226;8.108;2022-08-05T08:57:44;27.50;82.40
4520;DHT22;2272;49.226;8.108;2022-08-05T09:00:12;27.70;82.30
4520;DHT22;2272;49.226;8.108;2022-08-05T09:02:40;28.00;82.00
4520;DHT22;2272;49.226;8.108;2022-08-05T09:05:10;28.20;81.30
4520;DHT22;2272;49.226;8.108;2022-08-05T09:07:39;28.00;81.70
4520;DHT22;2272;49.226;8.108;2022-08-05T09:10:06;27.80;82.20
4520;DHT22;2272;49.226;8.108;2022-08-05T09:12:33;27.60;83.40
4520;DHT22;2272;49.226;8.108;2022-08-05T09:15:01;27.50;83.60
4520;DHT22;2272;49.226;8.108;2022-08-05T09:17:29;27.70;85.00
4520;DHT22;2272;49.226;8.108;2022-08-05T09:19:58;28.10;83.20
4520;DHT22;2272;49.226;8.108;2022-08-05T09:22:25;28.50;81.30
4520;DHT22;2272;49.226;8.108;2022-08-05T09:24:59;28.70;79.50
4520;DHT22;2272;49.226;8.108;2022-08-05T09:27:33;29.00;79.20
4520;DHT22;2272;49.226;8.108;2022-08-05T09:30:01;29.30;77.50
4520;DHT22;2272;49.226;8.108;2022-08-05T09:32:34;29.50;76.30
4520;DHT22;2272;49.226;8.108;2022-08-05T09:35:10;29.80;76.80
4520;DHT22;2272;49.226;8.108;2022-08-05T09:37:48;29.90;75.60
4520;DHT22;2272;49.226;8.108;2022-08-05T09:40:32;30.20;76.40
4520;DHT22;2272;49.226;8.108;2022-08-05T09:42:59;30.60;75.10
4520;DHT22;2272;49.226;8.108;2022-08-05T09:45:37;30.80;73.60
4520;DHT22;2272;49.226;8.108;2022-08-05T09:48:22;31.10;73.20
4520;DHT22;2272;49.226;8.108;2022-08-05T09:50:53;31.30;72.60
4520;DHT22;2272;49.226;8.108;2022-08-05T09:53:21;31.50;72.00
4520;DHT22;2272;49.226;8.108;2022-08-05T09:55:53;31.60;71.80
4520;DHT22;2272;49.226;8.108;2022-08-05T09:58:20;31.70;71.40
4520;DHT22;2272;49.226;8.108;2022-08-05T10:00:58;31.90;71.00
4520;DHT22;2272;49.226;8.108;2022-08-05T10:03:25;32.20;70.90
4520;DHT22;2272;49.226;8.108;2022-08-05T10:06:05;32.00;69.50
4520;DHT22;2272;49.226;8.108;2022-08-05T10:08:33;31.60;71.50
4520;DHT22;2272;49.226;8.108;2022-08-05T10:11:02;31.50;72.30
4520;DHT22;2272;49.226;8.108;2022-08-05T10:13:32;31.60;73.10
4520;DHT22;2272;49.226;8.108;2022-08-05T10:16:00;31.90;73.00
4520;DHT22;2272;49.226;8.108;2022-08-05T10:18:27;32.00;72.10
4520;DHT22;2272;49.226;8.108;2022-08-05T10:20:58;32.10;71.70
4520;DHT22;2272;49.226;8.108;2022-08-05T10:23:28;32.20;72.10
4520;DHT22;2272;49.226;8.108;2022-08-05T10:25:55;32.40;67.10
4520;DHT22;2272;49.226;8.108;2022-08-05T10:28:22;32.10;67.20
4520;DHT22;2272;49.226;8.108;2022-08-05T10:30:50;31.80;67.00
4520;DHT22;2272;49.226;8.108;2022-08-05T10:33:18;31.60;66.00
4520;DHT22;2272;49.226;8.108;2022-08-05T10:35:45;31.40;66.00
4520;DHT22;2272;49.226;8.108;2022-08-05T10:38:12;31.50;66.70
4520;DHT22;2272;49.226;8.108;2022-08-05T10:40:45;31.70;65.60
4520;DHT22;2272;49.226;8.108;2022-08-05T10:43:19;31.50;65.20
4520;DHT22;2272;49.226;8.108;2022-08-05T10:45:56;31.20;67.00
4520;DHT22;2272;49.226;8.108;2022-08-05T10:48:37;31.00;68.00
4520;DHT22;2272;49.226;8.108;2022-08-05T10:51:07;31.00;68.60
4520;DHT22;2272;49.226;8.108;2022-08-05T10:53:39;31.00;68.80
4520;DHT22;2272;49.226;8.108;2022-08-05T10:56:11;31.00;70.30
4520;DHT22;2272;49.226;8.108;2022-08-05T10:58:48;31.10;70.50
4520;DHT22;2272;49.226;8.108;2022-08-05T11:01:15;31.30;69.70
4520;DHT22;2272;49.226;8.108;2022-08-05T11:04:04;31.40;68.60
4520;DHT22;2272;49.226;8.108;2022-08-05T11:06:32;31.50;68.60
4520;DHT22;2272;49.226;8.108;2022-08-05T11:09:17;31.70;68.40
4520;DHT22;2272;49.226;8.108;2022-08-05T11:11:46;32.00;68.10
4520;DHT22;2272;49.226;8.108;2022-08-05T11:14:23;32.20;67.60
4520;DHT22;2272;49.226;8.108;2022-08-05T11:17:27;32.30;67.50
4520;DHT22;2272;49.226;8.108;2022-08-05T11:19:55;32.60;66.80
4520;DHT22;2272;49.226;8.108;2022-08-05T11:22:42;32.50;67.40
4520;DHT22;2272;49.226;8.108;2022-08-05T11:25:31;32.40;68.70
4520;DHT22;2272;49.226;8.108;2022-08-05T11:31:20;32.50;67.70
4520;DHT22;2272;49.226;8.108;2022-08-05T11:33:56;32.50;67.60
4520;DHT22;2272;49.226;8.108;2022-08-05T11:36:44;32.70;67.10
4520;DHT22;2272;49.226;8.108;2022-08-05T11:39:13;32.40;67.30
4520;DHT22;2272;49.226;8.108;2022-08-05T11:41:41;32.40;67.60
4520;DHT22;2272;49.226;8.108;2022-08-05T11:44:09;32.10;68.30
4520;DHT22;2272;49.226;8.108;2022-08-05T11:46:41;32.00;68.40
4520;DHT22;2272;49.226;8.108;2022-08-05T11:49:11;32.10;69.00
4520;DHT22;2272;49.226;8.108;2022-08-05T11:51:41;32.10;68.40
4520;DHT22;2272;49.226;8.108;2022-08-05T11:54:10;32.10;67.50
4520;DHT22;2272;49.226;8.108;2022-08-05T11:56:45;32.10;68.70
4520;DHT22;2272;49.226;8.108;2022-08-05T11:59:13;32.20;68.90
4520;DHT22;2272;49.226;8.108;2022-08-05T12:01:56;32.40;69.00
4520;DHT22;2272;49.226;8.108;2022-08-05T12:04:24;32.40;68.50
4520;DHT22;2272;49.226;8.108;2022-08-05T12:06:51;32.20;69.10
4520;DHT22;2272;49.226;8.108;2022-08-05T12:09:23;32.10;70.10
4520;DHT22;2272;49.226;8.108;2022-08-05T12:11:51;32.10;69.70
4520;DHT22;2272;49.226;8.108;2022-08-05T12:14:18;32.10;69.80
4520;DHT22;2272;49.226;8.108;2022-08-05T12:16:46;32.10;69.90
4520;DHT22;2272;49.226;8.108;2022-08-05T12:19:15;32.20;69.70
4520;DHT22;2272;49.226;8.108;2022-08-05T12:21:47;32.40;69.40
4520;DHT22;2272;49.226;8.108;2022-08-05T12:24:16;32.70;68.20
4520;DHT22;2272;49.226;8.108;2022-08-05T12:26:46;32.70;68.60
4520;DHT22;2272;49.226;8.108;2022-08-05T12:29:16;32.50;69.30
4520;DHT22;2272;49.226;8.108;2022-08-05T12:31:47;32.50;69.70
4520;DHT22;2272;49.226;8.108;2022-08-05T12:34:16;32.50;70.10
4520;DHT22;2272;49.226;8.108;2022-08-05T12:36:44;32.50;70.30
4520;DHT22;2272;49.226;8.108;2022-08-05T12:39:12;32.40;70.00
4520;DHT22;2272;49.226;8.108;2022-08-05T12:41:40;32.20;71.00
4520;DHT22;2272;49.226;8.108;2022-08-05T12:44:08;31.90;71.30
4520;DHT22;2272;49.226;8.108;2022-08-05T12:46:36;31.80;72.80
4520;DHT22;2272;49.226;8.108;2022-08-05T12:49:06;31.80;72.20
4520;DHT22;2272;49.226;8.108;2022-08-05T12:51:44;31.60;72.10
4520;DHT22;2272;49.226;8.108;2022-08-05T12:54:18;31.40;72.90
4520;DHT22;2272;49.226;8.108;2022-08-05T12:56:47;31.20;73.40
4520;DHT22;2272;49.226;8.108;2022-08-05T12:59:16;31.10;74.40
4520;DHT22;2272;49.226;8.108;2022-08-05T13:01:44;31.20;74.20
4520;DHT22;2272;49.226;8.108;2022-08-05T13:04:17;31.20;74.60
4520;DHT22;2272;49.226;8.108;2022-08-05T13:06:46;31.20;74.80
4520;DHT22;2272;49.226;8.108;2022-08-05T13:09:13;31.10;74.20
4520;DHT22;2272;49.226;8.108;2022-08-05T13:11:42;30.90;75.10
4520;DHT22;2272;49.226;8.108;2022-08-05T13:14:17;30.90;75.20
4520;DHT22;2272;49.226;8.108;2022-08-05T13:16:46;30.70;74.00
4520;DHT22;2272;49.226;8.108;2022-08-05T13:19:13;30.70;74.50
4520;DHT22;2272;49.226;8.108;2022-08-05T13:21:39;30.80;75.60
4520;DHT22;2272;49.226;8.108;2022-08-05T13:24:07;31.10;74.90
4520;DHT22;2272;49.226;8.108;2022-08-05T13:26:34;31.20;74.60
4520;DHT22;2272;49.226;8.108;2022-08-05T13:29:01;31.20;73.60
4520;DHT22;2272;49.226;8.108;2022-08-05T13:31:28;31.10;73.90
4520;DHT22;2272;49.226;8.108;2022-08-05T13:33:55;31.10;75.10
4520;DHT22;2272;49.226;8.108;2022-08-05T13:36:22;31.10;74.00
4520;DHT22;2272;49.226;8.108;2022-08-05T13:38:48;31.10;73.90
4520;DHT22;2272;49.226;8.108;2022-08-05T13:41:17;31.30;73.80
4520;DHT22;2272;49.226;8.108;2022-08-05T13:43:43;31.50;73.90
4520;DHT22;2272;49.226;8.108;2022-08-05T13:46:10;31.50;72.30
4520;DHT22;2272;49.226;8.108;2022-08-05T13:48:37;31.30;72.50
4520;DHT22;2272;49.226;8.108;2022-08-05T13:51:04;31.20;73.00
4520;DHT22;2272;49.226;8.108;2022-08-05T13:53:31;31.10;72.00
4520;DHT22;2272;49.226;8.108;2022-08-05T13:55:59;30.90;72.40
4520;DHT22;2272;49.226;8.108;2022-08-05T13:58:27;30.80;72.80
4520;DHT22;2272;49.226;8.108;2022-08-05T14:00:54;30.80;73.20
4520;DHT22;2272;49.226;8.108;2022-08-05T14:03:21;30.90;72.80
4520;DHT22;2272;49.226;8.108;2022-08-05T14:05:48;31.10;72.10
4520;DHT22;2272;49.226;8.108;2022-08-05T14:08:14;31.30;71.50
4520;DHT22;2272;49.226;8.108;2022-08-05T14:10:41;31.50;70.60
4520;DHT22;2272;49.226;8.108;2022-08-05T14:13:08;31.50;71.10
4520;DHT22;2272;49.226;8.108;2022-08-05T14:15:36;31.40;70.60
4520;DHT22;2272;49.226;8.108;2022-08-05T14:18:03;31.20;70.90
4520;DHT22;2272;49.226;8.108;2022-08-05T14:20:30;31.20;72.60
4520;DHT22;2272;49.226;8.108;2022-08-05T14:22:57;31.20;71.00
4520;DHT22;2272;49.226;8.108;2022-08-05T14:25:24;31.10;71.60
4520;DHT22;2272;49.226;8.108;2022-08-05T14:27:51;31.00;71.70
4520;DHT22;2272;49.226;8.108;2022-08-05T14:30:18;30.70;71.90
4520;DHT22;2272;49.226;8.108;2022-08-05T14:32:46;30.40;73.10
4520;DHT22;2272;49.226;8.108;2022-08-05T14:35:13;30.10;74.20
4520;DHT22;2272;49.226;8.108;2022-08-05T14:37:40;30.20;74.30
4520;DHT22;2272;49.226;8.108;2022-08-05T14:40:08;30.40;73.70
4520;DHT22;2272;49.226;8.108;2022-08-05T14:42:35;30.70;73.20
4520;DHT22;2272;49.226;8.108;2022-08-05T14:45:02;30.90;73.10
4520;DHT22;2272;49.226;8.108;2022-08-05T14:47:29;31.00;72.50
4520;DHT22;2272;49.226;8.108;2022-08-05T14:49:57;30.90;71.70
4520;DHT22;2272;49.226;8.108;2022-08-05T14:52:24;30.90;72.30
4520;DHT22;2272;49.226;8.108;2022-08-05T14:54:51;31.00;72.80
4520;DHT22;2272;49.226;8.108;2022-08-05T14:57:17;31.10;71.90
4520;DHT22;2272;49.226;8.108;2022-08-05T14:59:44;30.90;71.90
4520;DHT22;2272;49.226;8.108;2022-08-05T15:02:11;30.30;72.00
4520;DHT22;2272;49.226;8.108;2022-08-05T15:04:38;30.10;73.20
4520;DHT22;2272;49.226;8.108;2022-08-05T15:07:06;30.10;73.20
4520;DHT22;2272;49.226;8.108;2022-08-05T15:09:35;30.00;73.00
4520;DHT22;2272;49.226;8.108;2022-08-05T15:12:02;29.90;73.30
4520;DHT22;2272;49.226;8.108;2022-08-05T15:14:29;29.80;73.90
4520;DHT22;2272;49.226;8.108;2022-08-05T15:16:55;29.70;73.40
4520;DHT22;2272;49.226;8.108;2022-08-05T15:19:22;29.50;75.10
4520;DHT22;2272;49.226;8.108;2022-08-05T15:21:49;29.20;75.10
4520;DHT22;2272;49.226;8.108;2022-08-05T15:24:17;28.90;76.40
4520;DHT22;2272;49.226;8.108;2022-08-05T15:26:44;28.80;77.30
4520;DHT22;2272;49.226;8.108;2022-08-05T15:29:10;28.80;77.40
4520;DHT22;2272;49.226;8.108;2022-08-05T15:31:37;29.00;77.80
4520;DHT22;2272;49.226;8.108;2022-08-05T15:34:04;29.20;77.20
4520;DHT22;2272;49.226;8.108;2022-08-05T15:36:31;29.10;76.80
4520;DHT22;2272;49.226;8.108;2022-08-05T15:38:57;29.00;76.90
4520;DHT22;2272;49.226;8.108;2022-08-05T15:41:25;28.90;77.80
4520;DHT22;2272;49.226;8.108;2022-08-05T15:43:52;28.70;77.90
4520;DHT22;2272;49.226;8.108;2022-08-05T15:46:19;28.50;78.50
4520;DHT22;2272;49.226;8.108;2022-08-05T15:48:47;28.40;78.70
4520;DHT22;2272;49.226;8.108;2022-08-05T15:51:14;28.30;78.10
4520;DHT22;2272;49.226;8.108;2022-08-05T15:53:43;28.20;77.20
4520;DHT22;2272;49.226;8.108;2022-08-05T15:56:10;28.10;76.80
4520;DHT22;2272;49.226;8.108;2022-08-05T15:58:40;28.10;77.00
4520;DHT22;2272;49.226;8.108;2022-08-05T16:01:07;28.20;76.80
4520;DHT22;2272;49.226;8.108;2022-08-05T16:03:38;28.30;81.40
4520;DHT22;2272;49.226;8.108;2022-08-05T16:06:05;28.10;82.20
4520;DHT22;2272;49.226;8.108;2022-08-05T16:08:32;27.90;83.60
4520;DHT22;2272;49.226;8.108;2022-08-05T16:10:59;27.50;84.10
4520;DHT22;2272;49.226;8.108;2022-08-05T16:13:25;27.20;85.20
4520;DHT22;2272;49.226;8.108;2022-08-05T16:15:53;26.80;87.00